Time;durP1;ratioP1;P1;durP2;ratioP2;P2;SDS_P1;SDS_P2;PMS_P1;PMS_P2;Temp;Humidity;BMP_temperature;BMP_pressure;BME280_temperature;BME280_humidity;BME280_pressure;Samples;Min_cycle;Max_cycle;Signal;HPM_P1;HPM_P2
2022/09/22 00:01:59;;;;;;;1.20;0.82;;;;;;;25.73;35.23;101963.13;5095433;28;20443;-50
2022/09/22 00:04:28;;;;;;;2.00;0.90;;;;;;;25.73;35.35;101952.59;5095107;28;20049;-47
2022/09/22 00:06:57;;;;;;;1.27;0.75;;;;;;;25.74;34.99;101957.88;5095835;28;20047;-46
2022/09/22 00:09:25;;;;;;;1.13;0.73;;;;;;;25.76;34.98;101957.94;5095171;28;20119;-49
2022/09/22 00:11:54;;;;;;;1.20;0.65;;;;;;;25.78;35.22;101961.50;5094709;28;20414;-47
2022/09/22 00:14:25;;;;;;;1.73;0.82;;;;;;;25.79;35.09;101955.38;5095153;28;20045;-47
2022/09/22 00:16:57;;;;;;;0.90;0.80;;;;;;;25.76;35.29;101953.56;5094668;28;20027;-47
2022/09/22 00:19:28;;;;;;;1.45;0.73;;;;;;;25.72;35.42;101946.47;5095181;28;20138;-48
2022/09/22 00:21:57;;;;;;;2.88;0.80;;;;;;;25.70;35.08;101945.56;5094920;28;20081;-46
2022/09/22 00:24:27;;;;;;;0.73;0.60;;;;;;;25.75;35.27;101953.53;5094685;28;20034;-46
2022/09/22 00:26:57;;;;;;;1.55;0.82;;;;;;;25.73;34.97;101945.59;5076799;28;20074;-47
2022/09/22 00:29:27;;;;;;;1.27;0.80;;;;;;;25.73;35.15;101942.09;5094693;28;20040;-47
2022/09/22 00:31:56;;;;;;;1.38;0.70;;;;;;;25.75;35.30;101949.16;5094912;28;20032;-46
2022/09/22 00:34:26;;;;;;;1.85;0.80;;;;;;;25.73;35.24;101942.09;5094520;28;20028;-49
2022/09/22 00:36:55;;;;;;;1.83;1.10;;;;;;;25.73;35.13;101937.72;5094593;28;20016;-46
2022/09/22 00:39:23;;;;;;;1.02;0.70;;;;;;;25.75;35.20;101943.88;5094555;28;20024;-47
2022/09/22 00:41:52;;;;;;;0.98;0.75;;;;;;;25.68;35.38;101942.00;5076532;28;20144;-48
2022/09/22 00:44:35;;;;;;;2.22;0.80;;;;;;;25.75;34.87;101943.88;5094197;28;20107;-47
2022/09/22 00:47:31;;;;;;;2.03;0.77;;;;;;;25.72;35.14;101945.56;5094608;28;20390;-47
2022/09/22 00:50:20;;;;;;;1.20;0.77;;;;;;;25.68;35.21;101941.09;5088662;28;20043;-47
2022/09/22 00:52:57;;;;;;;2.85;0.70;;;;;;;25.67;35.17;101945.50;5076401;28;20016;-48
2022/09/22 00:55:34;;;;;;;1.63;1.00;;;;;;;25.63;35.16;101938.38;5094204;28;20035;-47
2022/09/22 00:58:03;;;;;;;1.90;0.77;;;;;;;25.77;35.02;101943.94;5094073;28;20024;-46
2022/09/22 01:00:31;;;;;;;2.28;0.80;;;;;;;25.65;34.96;101935.81;5076121;28;20024;-47
2022/09/22 01:03:01;;;;;;;1.35;0.75;;;;;;;25.71;35.23;101934.19;5093941;28;20371;-46
2022/09/22 01:05:32;;;;;;;1.00;0.70;;;;;;;25.71;35.10;101930.66;5075578;28;20099;-47
2022/09/22 01:08:02;;;;;;;2.60;0.95;;;;;;;25.66;34.87;101929.66;5076115;28;20177;-47
2022/09/22 01:10:30;;;;;;;1.00;0.80;;;;;;;25.71;35.18;101928.94;5093871;28;20052;-47
2022/09/22 01:13:21;;;;;;;1.65;0.80;;;;;;;25.71;34.74;101928.94;5093869;28;20024;-48
2022/09/22 01:15:56;;;;;;;1.42;0.80;;;;;;;25.70;34.94;101936.78;5087494;28;20044;-47
2022/09/22 01:18:41;;;;;;;1.40;0.60;;;;;;;25.72;35.13;101930.72;5076093;28;20028;-46
2022/09/22 01:21:19;;;;;;;1.10;0.60;;;;;;;25.65;35.02;101934.06;5093901;28;20032;-47
2022/09/22 01:24:01;;;;;;;1.52;0.65;;;;;;;25.70;35.15;101928.88;5076294;28;20536;-47
2022/09/22 01:26:57;;;;;;;1.67;1.00;;;;;;;25.67;35.16;101931.44;5093982;28;20020;-48
2022/09/22 01:29:53;;;;;;;1.17;0.80;;;;;;;25.68;34.79;101939.38;5070840;28;20475;-48
2022/09/22 01:32:30;;;;;;;1.35;0.90;;;;;;;25.61;34.78;101942.72;5093193;28;20043;-48
2022/09/22 01:35:11;;;;;;;1.88;0.80;;;;;;;25.55;35.10;101924.22;5059133;28;20031;-46
2022/09/22 01:38:04;;;;;;;1.95;1.10;;;;;;;25.57;34.98;101936.50;5093610;28;20027;-47
2022/09/22 01:40:48;;;;;;;2.08;0.70;;;;;;;25.66;34.83;101930.56;5052281;28;20398;-48
2022/09/22 01:43:55;;;;;;;1.33;0.90;;;;;;;25.68;34.79;101928.88;5075521;28;20031;-46
2022/09/22 01:46:28;;;;;;;1.25;0.80;;;;;;;25.61;34.70;101917.34;5086449;28;20031;-47
2022/09/22 01:48:59;;;;;;;1.38;0.68;;;;;;;25.62;34.85;101916.50;5075329;28;20047;-47
2022/09/22 01:51:31;;;;;;;2.00;1.20;;;;;;;25.62;34.96;101905.97;5075333;28;20031;-49
2022/09/22 01:54:05;;;;;;;1.50;1.00;;;;;;;25.64;34.71;101906.00;5075595;28;20024;-46
2022/09/22 01:56:35;;;;;;;1.48;0.68;;;;;;;25.65;34.55;101901.66;5075819;28;20050;-47
2022/09/22 01:59:09;;;;;;;2.33;1.10;;;;;;;25.68;34.69;101904.31;5075064;28;20028;-46
2022/09/22 02:01:45;;;;;;;1.00;0.70;;;;;;;25.59;34.79;101902.38;5075714;28;20075;-47
2022/09/22 02:04:20;;;;;;;2.92;0.90;;;;;;;25.58;34.82;101904.13;5075339;28;20386;-47
2022/09/22 02:06:54;;;;;;;1.40;0.80;;;;;;;25.60;34.79;101914.66;5093270;28;20039;-46
2022/09/22 02:09:25;;;;;;;2.50;0.93;;;;;;;25.61;34.54;101906.84;5093336;28;20360;-47
2022/09/22 02:11:53;;;;;;;1.27;0.60;;;;;;;25.59;34.92;101905.91;5093187;28;20375;-47
2022/09/22 02:14:22;;;;;;;2.85;0.70;;;;;;;25.57;34.63;101906.72;5092972;28;20031;-46
2022/09/22 02:16:51;;;;;;;1.63;0.70;;;;;;;25.52;34.63;101904.00;5076344;28;20559;-46
2022/09/22 02:19:22;;;;;;;1.88;0.90;;;;;;;25.52;34.80;101897.88;5078703;28;20520;-47
2022/09/22 02:21:50;;;;;;;1.27;0.80;;;;;;;25.47;34.90;101893.38;5079686;28;20053;-47
2022/09/22 02:24:42;;;;;;;1.77;1.17;;;;;;;25.48;34.64;101894.28;5079192;28;20024;-47
2022/09/22 02:27:17;;;;;;;0.85;0.77;;;;;;;25.49;34.58;101890.78;5097263;28;20031;-47
2022/09/22 02:29:46;;;;;;;;;;;;;;;25.60;34.40;101894.53;5097433;28;20186;-46
2022/09/22 02:32:17;;;;;;;0.95;0.50;;;;;;;25.55;34.82;101890.94;5096777;28;20389;-48
2022/09/22 02:34:46;;;;;;;1.00;0.73;;;;;;;25.51;34.59;101891.72;5079368;28;20199;-47
2022/09/22 02:37:37;;;;;;;0.70;0.70;;;;;;;25.50;34.63;101889.06;5097177;28;20031;-46
2022/09/22 02:40:27;;;;;;;0.80;0.65;;;;;;;25.41;34.53;101881.84;5078951;28;20020;-47
2022/09/22 02:43:17;;;;;;;1.98;0.85;;;;;;;25.42;34.49;101879.25;5087327;28;20032;-48
2022/09/22 02:46:05;;;;;;;1.60;0.80;;;;;;;25.45;34.71;101886.34;5071189;28;20043;-46
2022/09/22 02:48:46;;;;;;;1.75;0.77;;;;;;;25.42;34.84;101879.25;5096801;28;20016;-48
2022/09/22 02:51:17;;;;;;;1.25;0.70;;;;;;;25.41;34.72;101877.47;5078273;28;20028;-50
2022/09/22 02:53:46;;;;;;;1.50;0.90;;;;;;;25.50;34.74;101874.16;5096018;28;20123;-47
2022/09/22 02:56:14;;;;;;;1.45;0.70;;;;;;;25.60;34.30;101873.53;5096371;28;20056;-48
2022/09/22 02:58:43;;;;;;;0.73;0.70;;;;;;;25.55;34.38;101869.03;5096491;28;20036;-47
2022/09/22 03:01:11;;;;;;;1.13;0.70;;;;;;;25.45;34.75;101871.44;5096695;28;20017;-46
2022/09/22 03:03:40;;;;;;;4.70;0.82;;;;;;;25.44;34.63;101868.81;5095756;28;20093;-48
2022/09/22 03:06:08;;;;;;;0.52;0.47;;;;;;;25.47;34.67;101861.00;5096136;28;20028;-46
2022/09/22 03:08:37;;;;;;;1.17;0.65;;;;;;;25.44;34.62;101859.16;5096360;28;20051;-46
2022/09/22 03:11:05;;;;;;;0.75;0.55;;;;;;;25.45;34.36;101860.94;5096506;28;20360;-48
2022/09/22 03:13:34;;;;;;;1.02;0.47;;;;;;;25.51;34.21;101857.56;5095853;28;20118;-47
2022/09/22 03:16:06;;;;;;;0.82;0.60;;;;;;;25.43;34.62;101852.16;5095964;28;20032;-49
2022/09/22 03:18:38;;;;;;;1.42;0.68;;;;;;;25.45;34.52;101846.94;5096365;28;20031;-47
2022/09/22 03:21:06;;;;;;;0.80;0.50;;;;;;;25.38;34.64;101845.91;5096660;28;20395;-46
2022/09/22 03:23:38;;;;;;;1.50;0.70;;;;;;;25.39;34.72;101846.78;5096010;28;20028;-47
2022/09/22 03:26:07;;;;;;;0.50;0.50;;;;;;;25.43;34.58;101841.63;5096143;28;20035;-47
2022/09/22 03:28:35;;;;;;;1.73;0.68;;;;;;;25.39;34.27;101834.53;5095159;28;20020;-46
2022/09/22 03:31:03;;;;;;;1.13;0.57;;;;;;;25.44;34.20;101845.16;5095991;28;20028;-46
2022/09/22 03:33:32;;;;;;;2.58;0.75;;;;;;;25.41;34.50;101848.56;5096147;28;20410;-46
2022/09/22 03:36:01;;;;;;;1.67;0.68;;;;;;;25.37;34.53;101837.97;5078124;28;20032;-46
2022/09/22 03:38:28;;;;;;;2.10;0.47;;;;;;;25.42;34.36;101850.38;5078130;28;20494;-47
2022/09/22 03:40:57;;;;;;;1.05;0.50;;;;;;;25.36;34.33;101844.97;5095918;28;20024;-48
2022/09/22 03:43:26;;;;;;;3.33;0.70;;;;;;;25.36;34.38;101851.94;5095737;28;20016;-48
2022/09/22 03:45:59;;;;;;;1.05;0.68;;;;;;;25.42;34.22;101849.50;5095741;28;20475;-47
2022/09/22 03:48:28;;;;;;;0.98;0.70;;;;;;;25.42;34.29;101853.00;5077642;28;20024;-50
2022/09/22 03:50:57;;;;;;;1.02;0.82;;;;;;;25.37;34.52;101852.00;5095049;28;20031;-50
2022/09/22 03:53:26;;;;;;;1.08;0.70;;;;;;;25.45;34.44;101850.44;5094857;28;20020;-52
2022/09/22 03:56:05;;;;;;;1.95;0.82;;;;;;;25.43;34.29;101846.88;5095096;28;20547;-50
2022/09/22 03:58:34;;;;;;;1.75;0.50;;;;;;;25.35;34.44;101856.34;5095354;28;20122;-50
2022/09/22 04:01:02;;;;;;;3.65;0.80;;;;;;;25.30;34.58;101853.63;5095217;28;20028;-50
2022/09/22 04:03:31;;;;;;;1.25;0.70;;;;;;;25.30;34.38;101853.63;5077150;28;20070;-52
2022/09/22 04:06:00;;;;;;;1.25;0.93;;;;;;;25.24;34.75;101844.69;5095022;28;20020;-52
2022/09/22 04:08:28;;;;;;;1.08;0.60;;;;;;;25.20;34.27;101854.25;5095255;28;20364;-48
2022/09/22 04:10:58;;;;;;;1.67;0.75;;;;;;;25.28;34.26;101847.44;5095105;28;20028;-46
2022/09/22 04:13:27;;;;;;;2.15;0.95;;;;;;;25.24;34.50;101844.69;5094989;28;20164;-48
2022/09/22 04:15:55;;;;;;;0.82;0.65;;;;;;;25.24;34.30;101848.22;5094884;28;20024;-46
2022/09/22 04:18:26;;;;;;;0.57;0.52;;;;;;;25.26;33.99;101843.88;5094743;28;20471;-48
2022/09/22 04:20:57;;;;;;;1.05;0.50;;;;;;;25.34;34.14;101846.69;5094826;28;20502;-49
2022/09/22 04:23:26;;;;;;;0.90;0.60;;;;;;;25.30;34.03;101843.09;5094608;28;20020;-48
2022/09/22 04:25:55;;;;;;;0.47;0.40;;;;;;;25.40;34.19;101840.66;5094588;28;20027;-49
2022/09/22 04:28:24;;;;;;;0.68;0.43;;;;;;;25.37;34.08;101838.88;5094586;28;20104;-50
2022/09/22 04:30:52;;;;;;;1.88;0.70;;;;;;;25.26;34.10;101843.88;5094552;28;20047;-50
2022/09/22 04:33:23;;;;;;;1.05;0.57;;;;;;;25.06;34.31;101816.31;5094618;28;20031;-50
2022/09/22 04:35:52;;;;;;;0.98;0.50;;;;;;;25.28;34.10;101834.31;5076825;28;20455;-49
2022/09/22 04:38:20;;;;;;;0.50;0.38;;;;;;;25.15;34.37;101816.53;5094635;28;20093;-47
2022/09/22 04:40:49;;;;;;;0.75;0.43;;;;;;;25.22;34.31;101836.78;5093686;28;20103;-49
2022/09/22 04:43:17;;;;;;;2.35;0.73;;;;;;;25.17;34.19;101833.16;5094537;28;20016;-48
2022/09/22 04:45:47;;;;;;;1.33;0.70;;;;;;;25.11;34.35;101835.69;5094881;28;20031;-45
2022/09/22 04:48:16;;;;;;;1.48;0.80;;;;;;;25.16;34.09;101829.69;5094513;28;20023;-52
2022/09/22 04:50:45;;;;;;;1.17;0.50;;;;;;;25.17;34.19;101827.91;5093974;28;20445;-48
2022/09/22 04:53:12;;;;;;;0.55;0.50;;;;;;;25.20;33.92;101830.63;5094243;28;20028;-46
2022/09/22 04:55:41;;;;;;;1.40;0.60;;;;;;;25.21;34.23;101835.00;5094430;28;20463;-47
2022/09/22 04:58:09;;;;;;;0.63;0.60;;;;;;;25.21;34.21;101829.75;5094014;28;20024;-47
2022/09/22 05:00:38;;;;;;;1.20;0.70;;;;;;;25.24;34.32;101834.19;5076044;28;20124;-51
2022/09/22 05:03:10;;;;;;;1.05;0.82;;;;;;;25.14;34.02;101838.38;5094258;28;20043;-49
2022/09/22 05:05:39;;;;;;;0.77;0.75;;;;;;;25.20;34.28;101832.38;5094206;28;20059;-49
2022/09/22 05:08:09;;;;;;;0.90;0.70;;;;;;;25.15;34.35;101821.78;5093866;28;20024;-47
2022/09/22 05:10:37;;;;;;;2.72;0.70;;;;;;;25.19;34.39;101834.09;5094151;28;20020;-48
2022/09/22 05:13:06;;;;;;;1.55;0.70;;;;;;;25.16;34.22;101832.31;5076190;28;20488;-47
2022/09/22 05:15:35;;;;;;;1.33;0.50;;;;;;;25.17;34.14;101830.53;5076008;28;20479;-48
2022/09/22 05:18:03;;;;;;;1.02;0.45;;;;;;;25.17;34.07;101835.78;5093598;28;20028;-54
2022/09/22 05:20:32;;;;;;;0.93;0.63;;;;;;;25.12;34.31;101833.06;5094244;28;20031;-47
2022/09/22 05:23:01;;;;;;;4.75;0.50;;;;;;;25.11;34.42;101831.31;5075974;28;20032;-47
2022/09/22 05:25:31;;;;;;;2.05;0.80;;;;;;;25.13;34.50;101834.84;5093270;28;20032;-50
2022/09/22 05:28:00;;;;;;;4.47;0.77;;;;;;;25.17;34.40;101831.44;5093578;28;20027;-47
2022/09/22 05:30:28;;;;;;;0.45;0.40;;;;;;;25.20;34.16;101830.63;5093497;28;20137;-47
2022/09/22 05:32:57;;;;;;;0.55;0.45;;;;;;;25.20;34.28;101829.75;5093645;28;20020;-47
2022/09/22 05:35:26;;;;;;;3.50;0.57;;;;;;;25.20;34.22;101832.38;5075640;28;20032;-46
2022/09/22 05:37:54;;;;;;;0.65;0.32;;;;;;;25.23;34.19;101833.31;5093757;28;20020;-46
2022/09/22 05:40:24;;;;;;;1.55;0.80;;;;;;;25.27;34.09;101837.78;5093574;28;20119;-46
2022/09/22 05:42:54;;;;;;;3.88;0.80;;;;;;;25.27;34.25;101834.25;5093700;28;20058;-47
2022/09/22 05:45:22;;;;;;;1.30;0.82;;;;;;;25.19;34.41;101834.09;5093697;28;20371;-52
2022/09/22 05:47:50;;;;;;;1.02;0.60;;;;;;;25.14;34.44;101827.88;5093896;28;20032;-46
2022/09/22 05:50:19;;;;;;;1.88;0.73;;;;;;;25.17;34.32;101835.78;5093373;28;20028;-50
2022/09/22 05:52:47;;;;;;;1.00;0.68;;;;;;;25.19;34.27;101831.47;5093142;28;20028;-46
2022/09/22 05:55:16;;;;;;;0.63;0.50;;;;;;;25.19;34.65;101836.72;5093238;28;20050;-48
2022/09/22 05:57:44;;;;;;;1.60;0.50;;;;;;;25.15;34.71;101832.28;5093030;28;20486;-47
2022/09/22 06:00:13;;;;;;;1.33;0.70;;;;;;;25.18;34.61;101832.31;5093252;28;20028;-46
2022/09/22 06:02:44;;;;;;;1.88;0.50;;;;;;;25.18;34.78;101834.94;5093170;28;20028;-47
2022/09/22 06:05:12;;;;;;;4.78;0.63;;;;;;;25.24;34.53;101842.06;5093265;28;20031;-46
2022/09/22 06:07:41;;;;;;;1.00;0.50;;;;;;;25.22;34.58;101834.16;5093024;28;20024;-46
2022/09/22 06:10:10;;;;;;;10.75;0.75;;;;;;;25.25;34.34;101833.34;5093492;28;20028;-47
2022/09/22 06:12:39;;;;;;;6.63;1.15;;;;;;;25.23;34.57;101830.69;5093133;28;20085;-48
2022/09/22 06:15:08;;;;;;;1.90;0.50;;;;;;;25.24;34.56;101828.94;5092477;28;20112;-48
2022/09/22 06:17:37;;;;;;;1.65;0.55;;;;;;;25.27;34.21;101827.28;5092946;28;20034;-48
2022/09/22 06:20:07;;;;;;;1.25;0.55;;;;;;;25.27;34.54;101832.53;5092874;28;20368;-47
2022/09/22 06:22:36;;;;;;;3.67;0.50;;;;;;;25.20;34.22;101828.00;5092814;28;20032;-49
2022/09/22 06:25:07;;;;;;;2.28;0.73;;;;;;;25.19;34.39;101834.09;5093136;28;20036;-49
2022/09/22 06:27:36;;;;;;;1.73;0.47;;;;;;;25.25;34.37;101844.75;5092921;28;20024;-51
2022/09/22 06:30:05;;;;;;;1.27;0.45;;;;;;;25.24;34.61;101848.22;5092435;28;20046;-50
2022/09/22 06:32:35;;;;;;;1.83;0.70;;;;;;;25.21;34.39;101835.00;5075005;28;20454;-49
2022/09/22 06:35:04;;;;;;;5.03;1.27;;;;;;;25.24;34.58;101844.69;5092817;28;20024;-51
2022/09/22 06:37:33;;;;;;;2.42;0.55;;;;;;;25.25;34.51;101839.50;5074789;28;20024;-47
2022/09/22 06:40:01;;;;;;;2.78;0.90;;;;;;;25.21;34.67;101835.00;5074689;28;20463;-51
2022/09/22 06:42:30;;;;;;;0.75;0.60;;;;;;;25.26;34.40;101849.13;5092695;28;20394;-49
2022/09/22 06:44:59;;;;;;;0.57;0.43;;;;;;;25.26;34.78;101845.59;5092924;28;20124;-52
2022/09/22 06:47:27;;;;;;;2.40;0.65;;;;;;;25.29;34.76;101849.22;5092646;28;20050;-48
2022/09/22 06:49:56;;;;;;;0.98;0.50;;;;;;;25.32;34.79;101849.25;5092709;28;20107;-51
2022/09/22 06:52:26;;;;;;;5.90;0.82;;;;;;;25.38;34.68;101850.25;5074954;28;20028;-51
2022/09/22 06:54:57;;;;;;;1.60;0.40;;;;;;;25.32;34.85;101836.13;5092725;28;20020;-51
2022/09/22 06:57:26;;;;;;;7.53;0.63;;;;;;;25.38;34.83;101856.41;5075379;28;20080;-46
